createdAt,value
2018-07-03T00:00:17.614Z,42.33
2018-07-03T00:00:58.613Z,42.25
2018-07-03T00:01:39.082Z,42.35
2018-07-03T00:02:19.591Z,42.16
2018-07-03T00:03:00.080Z,42.45
2018-07-03T00:03:41.339Z,42.35
2018-07-03T00:04:22.649Z,42.24
2018-07-03T00:05:03.178Z,42.25
2018-07-03T00:05:44.412Z,42.14
2018-07-03T00:06:24.958Z,42.52
2018-07-03T00:07:05.425Z,42.72
2018-07-03T00:07:46.519Z,42.62
2018-07-03T00:08:27.008Z,42.62
2018-07-03T00:09:07.493Z,42.52
2018-07-03T00:09:48.019Z,42.62
2018-07-03T00:10:29.150Z,42.52
2018-07-03T00:11:09.624Z,42.62
2018-07-03T00:11:50.084Z,42.62
2018-07-03T00:12:30.598Z,42.82
2018-07-03T00:13:11.124Z,42.62
2018-07-03T00:13:52.495Z,42.62
2018-07-03T00:14:33.007Z,42.91
2018-07-03T00:15:13.554Z,42.91
2018-07-03T00:15:54.048Z,42.52
2018-07-03T00:16:34.599Z,42.62
2018-07-03T00:17:16.009Z,42.62
2018-07-03T00:17:56.535Z,42.82
2018-07-03T00:18:36.993Z,42.91
2018-07-03T00:19:17.565Z,43.01
2018-07-03T00:19:57.996Z,43.18
2018-07-03T00:20:38.506Z,43.1
2018-07-03T00:21:18.979Z,42.91
2018-07-03T00:22:00.027Z,43.47
2018-07-03T00:22:40.501Z,43.01
2018-07-03T00:23:21.042Z,42.91
2018-07-03T00:24:01.603Z,43.1
2018-07-03T00:24:42.825Z,43.3
2018-07-03T00:25:23.293Z,43.3
2018-07-03T00:26:03.808Z,43.4
2018-07-03T00:26:44.316Z,43.2
2018-07-03T00:27:25.676Z,43.4
2018-07-03T00:28:06.183Z,43.4
2018-07-03T00:28:46.678Z,43.37
2018-07-03T00:29:27.209Z,43.57
2018-07-03T00:30:07.644Z,43.47
2018-07-03T00:30:48.151Z,43.59
2018-07-03T00:31:28.675Z,43.59
2018-07-03T00:32:09.140Z,43.37
2018-07-03T00:32:49.657Z,43.59
2018-07-03T00:33:30.127Z,43.66
2018-07-03T00:34:11.144Z,43.95
2018-07-03T00:34:51.641Z,43.85
2018-07-03T00:35:33.082Z,44.05
2018-07-03T00:36:13.607Z,43.95
2018-07-03T00:36:54.167Z,44.24
2018-07-03T00:39:13.281Z,44.43
2018-07-03T00:39:54.777Z,44.34
2018-07-03T00:40:35.288Z,44.53
2018-07-03T00:41:15.844Z,44.92
2018-07-03T00:41:56.328Z,44.34
2018-07-03T00:42:37.686Z,45.01
2018-07-03T00:43:18.183Z,44.92
2018-07-03T00:43:58.713Z,44.73
2018-07-03T00:44:39.225Z,45.11
2018-07-03T00:45:20.294Z,44.92
2018-07-03T00:46:00.810Z,44.82
2018-07-03T00:46:43.215Z,45.11
2018-07-03T00:47:23.684Z,45.31
2018-07-03T00:48:04.157Z,45.4
2018-07-03T00:48:45.190Z,45.57
2018-07-03T00:49:26.683Z,45.59
2018-07-03T00:50:07.199Z,45.4
2018-07-03T00:50:47.684Z,45.59
2018-07-03T00:51:28.188Z,45.69
2018-07-03T00:52:08.717Z,45.21
2018-07-03T00:52:51.789Z,45.59
2018-07-03T00:53:32.294Z,45.59
2018-07-03T00:54:12.733Z,45.79
2018-07-03T00:54:54.190Z,45.67
2018-07-03T00:55:34.708Z,45.67
2018-07-03T00:56:16.189Z,45.67
2018-07-03T00:56:56.680Z,45.69
2018-07-03T00:57:37.174Z,45.59
2018-07-03T00:58:17.663Z,45.59
2018-07-03T00:58:58.175Z,45.28
2018-07-03T00:59:38.674Z,45.38
2018-07-03T01:00:19.180Z,45.86
2018-07-03T01:00:59.684Z,45.57
2018-07-03T01:01:40.917Z,45.28
2018-07-03T01:02:21.398Z,45.57
2018-07-03T01:03:02.493Z,45.38
2018-07-03T01:03:43.673Z,45.57
2018-07-03T01:04:24.019Z,45.86
2018-07-03T01:05:04.520Z,45.67
2018-07-03T01:05:45.022Z,45.57
2018-07-03T01:06:25.530Z,45.67
2018-07-03T01:07:06.021Z,45.67
2018-07-03T01:07:47.201Z,45.67
2018-07-03T01:08:27.700Z,45.48
2018-07-03T01:09:08.811Z,45.67
2018-07-03T01:09:49.295Z,45.76
2018-07-03T01:10:30.698Z,45.86
2018-07-03T01:11:11.226Z,45.86
2018-07-03T01:11:51.717Z,45.76
2018-07-03T01:12:32.926Z,45.96
2018-07-03T01:13:13.404Z,45.86
2018-07-03T01:13:54.525Z,45.96
2018-07-03T01:14:35.004Z,46.25
2018-07-03T01:15:15.462Z,46.06
2018-07-03T01:15:56.838Z,46.25
2018-07-03T01:16:37.313Z,46.06
2018-07-03T01:17:17.811Z,46.33
2018-07-03T01:17:58.309Z,46.71
2018-07-03T01:18:40.455Z,46.13
2018-07-03T01:19:20.950Z,46.71
2018-07-03T01:20:01.467Z,46.71
2018-07-03T01:20:43.890Z,46.51
2018-07-03T01:21:24.441Z,46.61
2018-07-03T01:22:04.938Z,46.71
2018-07-03T01:22:45.479Z,46.42
2018-07-03T01:23:25.938Z,46.33
2018-07-03T01:24:06.434Z,46.51
2018-07-03T01:24:46.931Z,46.42
2018-07-03T01:25:27.462Z,46.54
2018-07-03T01:26:07.924Z,46.33
2018-07-03T01:26:48.522Z,46.51
2018-07-03T01:27:28.954Z,47
2018-07-03T01:28:09.483Z,46.81
2018-07-03T01:28:50.727Z,46.81
2018-07-03T01:29:31.234Z,46.71
2018-07-03T01:30:12.249Z,46.9
2018-07-03T01:30:54.215Z,46.51
2018-07-03T01:31:35.750Z,46.42
2018-07-03T01:32:17.025Z,46.71
2018-07-03T01:32:57.529Z,46.33
2018-07-03T01:33:40.057Z,46.33
2018-07-03T01:34:20.533Z,46.42
2018-07-03T01:35:01.008Z,46.33
2018-07-03T01:35:41.512Z,46.33
2018-07-03T01:36:21.982Z,46.42
2018-07-03T01:37:02.487Z,46.61
2018-07-03T01:37:42.969Z,46.42
2018-07-03T01:38:23.434Z,46.33
2018-07-03T01:39:03.912Z,46.61
2018-07-03T01:39:47.432Z,46.42
2018-07-03T01:40:28.727Z,46.61
2018-07-03T01:41:10.815Z,45.94
2018-07-03T01:41:51.815Z,46.42
2018-07-03T01:42:32.330Z,46.13
2018-07-03T01:43:12.838Z,45.94
2018-07-03T01:43:54.103Z,46.42
2018-07-03T01:44:34.630Z,46.42
2018-07-03T01:45:15.122Z,46.71
2018-07-03T01:45:56.507Z,46.42
2018-07-03T01:46:36.996Z,46.69
2018-07-03T01:47:17.505Z,46.61
2018-07-03T01:47:57.994Z,46.51
2018-07-03T01:48:38.497Z,46.71
2018-07-03T01:49:19.513Z,46.61
2018-07-03T01:50:00.019Z,46.2
2018-07-03T01:50:40.541Z,46.49
2018-07-03T01:51:21.025Z,46.69
2018-07-03T01:52:01.545Z,46.4
2018-07-03T01:52:42.078Z,46.69
2018-07-03T01:53:22.562Z,46.4
2018-07-03T01:54:03.075Z,46.4
2018-07-03T01:54:43.570Z,46.49
2018-07-03T01:55:24.051Z,46.97
2018-07-03T01:56:04.564Z,46.4
2018-07-03T01:56:46.445Z,46.4
2018-07-03T01:57:26.928Z,46.11
2018-07-03T01:58:07.430Z,46.3
2018-07-03T01:58:48.597Z,46.49
2018-07-03T01:59:29.143Z,46.59
2018-07-03T02:00:10.404Z,46.4
2018-07-03T02:00:50.917Z,46.78
2018-07-03T02:01:31.420Z,46.49
2018-07-03T02:02:11.930Z,46.49
2018-07-03T02:02:52.397Z,46.69
2018-07-03T02:03:32.879Z,46.59
2018-07-03T02:04:13.392Z,46.59
2018-07-03T02:04:53.915Z,46.49
2018-07-03T02:05:34.455Z,46.11
2018-07-03T02:06:14.966Z,46.59
2018-07-03T02:06:55.478Z,46.2
2018-07-03T02:07:37.828Z,46.2
2018-07-03T02:08:20.089Z,46.4
2018-07-03T02:09:01.110Z,45.94
2018-07-03T02:09:41.602Z,46.01
2018-07-03T02:10:23.833Z,46.4
2018-07-03T02:11:05.226Z,46.69
2018-07-03T02:11:45.746Z,46.69
2018-07-03T02:12:26.254Z,46.69
2018-07-03T02:13:06.765Z,46.2
2018-07-03T02:13:47.249Z,46.3
2018-07-03T02:14:27.766Z,46.59
2018-07-03T02:15:08.294Z,46.2
2018-07-03T02:15:48.810Z,46.78
2018-07-03T02:16:29.309Z,46.11
2018-07-03T02:17:09.828Z,46.2
2018-07-03T02:17:51.341Z,46.69
2018-07-03T02:18:32.730Z,45.92
2018-07-03T02:19:13.831Z,46.4
2018-07-03T02:19:54.355Z,46.49
2018-07-03T02:20:34.848Z,46.49
2018-07-03T02:21:15.350Z,46.4
2018-07-03T02:21:55.866Z,46.3
2018-07-03T02:22:36.422Z,46.2
2018-07-03T02:23:17.624Z,46.69
2018-07-03T02:23:59.023Z,46.4
2018-07-03T02:24:39.564Z,46.59
2018-07-03T02:25:20.835Z,46.49
2018-07-03T02:26:01.365Z,45.92
2018-07-03T02:26:41.862Z,46.69
2018-07-03T02:27:22.308Z,46.4
2018-07-03T02:28:02.775Z,46.49
2018-07-03T02:28:43.280Z,46.3
2018-07-03T02:29:23.790Z,46.59
2018-07-03T02:30:04.318Z,47.07
2018-07-03T02:30:45.680Z,47.07
2018-07-03T02:31:26.143Z,46.49
2018-07-03T02:32:07.440Z,46.49
2018-07-03T02:32:47.918Z,46.69
2018-07-03T02:33:28.439Z,46.3
2018-07-03T02:34:08.942Z,46.69
2018-07-03T02:34:49.469Z,46.59
2018-07-03T02:35:29.992Z,46.3
2018-07-03T02:36:10.456Z,46.69
2018-07-03T02:36:50.942Z,46.69
2018-07-03T02:37:31.450Z,46.59
2018-07-03T02:38:11.967Z,46.69
2018-07-03T02:38:52.479Z,46.4
2018-07-03T02:39:33.745Z,46.4
2018-07-03T02:40:14.276Z,46.59
2018-07-03T02:40:54.766Z,46.08
2018-07-03T02:41:35.269Z,46.28
2018-07-03T02:42:15.761Z,46.28
2018-07-03T02:42:56.930Z,46.47
2018-07-03T02:43:37.417Z,46.37
2018-07-03T02:44:17.927Z,46.66
2018-07-03T02:44:58.458Z,46.56
2018-07-03T02:45:38.968Z,46.47
2018-07-03T02:46:19.446Z,46.28
2018-07-03T02:47:00.787Z,46.47
2018-07-03T02:47:41.219Z,46.47
2018-07-03T02:48:22.566Z,46.76
2018-07-03T02:49:03.042Z,46.47
2018-07-03T02:49:43.582Z,46.37
2018-07-03T02:50:24.065Z,46.66
2018-07-03T02:51:04.570Z,45.89
2018-07-03T02:51:45.113Z,46.76
2018-07-03T02:52:25.587Z,46.28
2018-07-03T02:53:07.034Z,46.66
2018-07-03T02:53:48.785Z,46.18
2018-07-03T02:54:29.272Z,46.4
2018-07-03T02:55:09.752Z,46.2
2018-07-03T02:55:51.256Z,46.59
2018-07-03T02:56:31.776Z,46.76
2018-07-03T02:57:13.058Z,46.56
2018-07-03T02:57:53.576Z,45.92
2018-07-03T02:58:34.101Z,46.47
2018-07-03T02:59:14.658Z,46.56
2018-07-03T02:59:55.754Z,46.56
2018-07-03T03:00:36.267Z,46.49
2018-07-03T03:01:18.451Z,46.56
2018-07-03T03:01:58.952Z,46.2
2018-07-03T03:02:39.484Z,46.78
2018-07-03T03:03:19.980Z,46.59
2018-07-03T03:04:00.489Z,46.56
2018-07-03T03:04:41.026Z,46.37
2018-07-03T03:05:21.514Z,46.56
2018-07-03T03:06:02.033Z,46.56
2018-07-03T03:06:42.550Z,46.18
2018-07-03T03:07:23.068Z,46.66
2018-07-03T03:08:03.627Z,46.28
2018-07-03T03:08:44.648Z,46.56
2018-07-03T03:09:25.144Z,46.49
2018-07-03T03:10:05.647Z,46.3
2018-07-03T03:10:46.131Z,46.37
2018-07-03T03:11:26.675Z,46.66
2018-07-03T03:12:07.791Z,46.37
2018-07-03T03:12:48.253Z,46.66
2018-07-03T03:13:28.762Z,46.37
2018-07-03T03:14:09.252Z,46.3
2018-07-03T03:14:49.791Z,46.59
2018-07-03T03:15:30.319Z,46.66
2018-07-03T03:16:11.352Z,46.56
2018-07-03T03:16:53.554Z,46.66
2018-07-03T03:17:34.958Z,46.69
2018-07-03T03:18:15.464Z,46.28
2018-07-03T03:18:55.927Z,46.37
2018-07-03T03:19:36.428Z,46.78
2018-07-03T03:20:16.904Z,46.59
2018-07-03T03:20:57.388Z,46.59
2018-07-03T03:21:37.907Z,46.69
2018-07-03T03:22:18.415Z,46.3
2018-07-03T03:22:58.886Z,46.2
2018-07-03T03:23:39.976Z,46.08
2018-07-03T03:24:20.471Z,46.37
2018-07-03T03:25:00.986Z,46.66
2018-07-03T03:25:41.489Z,45.92
2018-07-03T03:26:22.654Z,46.11
2018-07-03T03:27:03.159Z,46.01
2018-07-03T03:27:43.635Z,46.11
2018-07-03T03:28:24.655Z,46.69
2018-07-03T03:29:05.700Z,46.59
2018-07-03T03:29:46.120Z,46.56
2018-07-03T03:30:26.651Z,46.47
2018-07-03T03:31:07.152Z,46.28
2018-07-03T03:31:48.273Z,46.66
2018-07-03T03:32:28.761Z,46.47
2018-07-03T03:33:09.280Z,46.66
2018-07-03T03:33:49.724Z,46.66
2018-07-03T03:34:32.058Z,46.56
2018-07-03T03:35:13.149Z,46.28
2018-07-03T03:35:53.932Z,46.66
2018-07-03T03:36:35.005Z,46.56
2018-07-03T03:37:15.531Z,46.66
2018-07-03T03:37:56.616Z,46.37
2018-07-03T03:38:37.151Z,46.37
2018-07-03T03:39:17.657Z,46.47
2018-07-03T03:39:58.111Z,46.47
2018-07-03T03:40:38.625Z,46.56
2018-07-03T03:41:19.134Z,45.92
2018-07-03T03:41:59.617Z,46.2
2018-07-03T03:42:40.694Z,46.3
2018-07-03T03:43:21.123Z,46.4
2018-07-03T03:44:02.492Z,46.3
2018-07-03T03:44:44.402Z,46.59
2018-07-03T03:45:24.953Z,46.69
2018-07-03T03:46:05.437Z,46.59
2018-07-03T03:46:45.892Z,46.69
2018-07-03T03:47:26.408Z,46.4
2018-07-03T03:48:06.911Z,46.2
2018-07-03T03:48:47.378Z,46.3
2018-07-03T03:49:27.927Z,46.49
2018-07-03T03:50:08.380Z,46.3
2018-07-03T03:50:50.261Z,46.4
2018-07-03T03:51:31.510Z,46.11
2018-07-03T03:52:12.103Z,46.4
2018-07-03T03:52:55.498Z,46.3
2018-07-03T03:53:36.025Z,46.59
2018-07-03T03:54:16.463Z,46.08
2018-07-03T03:54:56.983Z,46.37
2018-07-03T03:55:37.471Z,46.78
2018-07-03T03:56:17.945Z,46.4
2018-07-03T03:56:58.424Z,46.78
2018-07-03T03:57:39.231Z,46.4
2018-07-03T03:58:20.393Z,46.11
2018-07-03T03:59:01.889Z,45.92
2018-07-03T03:59:42.325Z,46.01
2018-07-03T04:00:22.807Z,46.01
2018-07-03T04:01:03.890Z,45.92
2018-07-03T04:01:45.980Z,45.92
2018-07-03T04:02:26.513Z,45.72
2018-07-03T04:03:08.416Z,45.82
2018-07-03T04:03:48.890Z,46.01
2018-07-03T04:04:29.382Z,45.92
2018-07-03T04:05:10.000Z,46.01
2018-07-03T04:05:50.462Z,45.92
2018-07-03T04:06:30.976Z,46.01
2018-07-03T04:07:13.013Z,45.62
2018-07-03T04:07:53.813Z,45.43
2018-07-03T04:08:34.626Z,45.62
2018-07-03T04:09:15.369Z,45.53
2018-07-03T04:09:55.844Z,45.45
2018-07-03T04:10:36.389Z,45.45
2018-07-03T04:11:18.488Z,45.45
2018-07-03T04:11:59.019Z,45.36
2018-07-03T04:12:40.509Z,44.97
2018-07-03T04:13:21.010Z,44.7
2018-07-03T04:14:01.507Z,44.68
2018-07-03T04:14:41.997Z,44.22
2018-07-03T04:15:22.520Z,44.68
2018-07-03T04:16:03.597Z,44.97
2018-07-03T04:16:44.070Z,44.97
2018-07-03T04:17:24.595Z,45.07
2018-07-03T04:18:05.045Z,45.17
2018-07-03T04:18:45.582Z,45.26
2018-07-03T04:19:26.057Z,45.26
2018-07-03T04:20:06.543Z,45.26
2018-07-03T04:20:47.012Z,45.07
2018-07-03T04:21:27.528Z,45.26
2018-07-03T04:22:08.012Z,45.17
2018-07-03T04:22:48.542Z,45.45
2018-07-03T04:23:29.053Z,45.36
2018-07-03T04:24:10.178Z,45.55
2018-07-03T04:24:50.668Z,45.36
2018-07-03T04:25:31.190Z,45.36
2018-07-03T04:26:12.835Z,45.26
2018-07-03T04:26:54.049Z,45.45
2018-07-03T04:27:34.525Z,45.53
2018-07-03T04:28:15.005Z,45.72
2018-07-03T04:28:56.439Z,45.62
2018-07-03T04:29:36.940Z,45.72
2018-07-03T04:30:17.457Z,45.92
2018-07-03T04:30:57.957Z,45.62
2018-07-03T04:31:38.440Z,45.55
2018-07-03T04:32:18.976Z,45.26
2018-07-03T04:32:59.475Z,45.45
2018-07-03T04:33:40.028Z,45.34
2018-07-03T04:34:20.530Z,45.55
2018-07-03T04:35:01.680Z,45.55
2018-07-03T04:35:43.044Z,45.45
2018-07-03T04:36:23.530Z,45.55
2018-07-03T04:37:04.102Z,45.53
2018-07-03T04:37:44.560Z,45.34
2018-07-03T04:38:25.074Z,45.53
2018-07-03T04:39:05.538Z,45.55
2018-07-03T04:39:46.988Z,45.55
2018-07-03T04:40:28.433Z,45.45
2018-07-03T04:41:10.806Z,45.45
2018-07-03T04:41:53.035Z,45.45
2018-07-03T04:42:33.536Z,45.36
2018-07-03T04:43:14.028Z,45.07
2018-07-03T04:43:54.505Z,44.97
2018-07-03T04:44:35.007Z,44.7
2018-07-03T04:45:15.546Z,43.85
2018-07-03T04:45:56.678Z,42.55
2018-07-03T04:46:37.146Z,41.41
2018-07-03T04:47:17.684Z,40.44
2018-07-03T04:47:58.146Z,40.15
2018-07-03T04:48:38.649Z,40.92
2018-07-03T04:49:19.190Z,41.48
2018-07-03T04:49:59.681Z,41.97
2018-07-03T04:50:40.757Z,41.97
2018-07-03T04:51:21.288Z,41.77
2018-07-03T04:52:02.736Z,41.97
2018-07-03T04:52:43.124Z,42.24
2018-07-03T04:53:23.725Z,42.62
2018-07-03T04:54:04.165Z,42.99
2018-07-03T04:54:44.637Z,42.82
2018-07-03T04:55:25.128Z,43.18
2018-07-03T04:56:05.652Z,42.99
2018-07-03T04:56:46.685Z,42.99
2018-07-03T04:57:27.193Z,43.08
2018-07-03T04:58:07.670Z,42.62
2018-07-03T04:58:48.141Z,42.04
2018-07-03T04:59:28.649Z,41.87
2018-07-03T05:00:09.107Z,41.85
2018-07-03T05:00:49.614Z,42.04
2018-07-03T05:01:30.187Z,42.43
2018-07-03T05:02:10.632Z,42.14
2018-07-03T05:02:51.188Z,42.72
2018-07-03T05:03:31.649Z,43.08
2018-07-03T05:04:12.129Z,43.08
2018-07-03T05:04:52.660Z,43.01
2018-07-03T05:05:35.045Z,43.47
2018-07-03T05:06:15.502Z,43.84
2018-07-03T05:06:56.190Z,44.12
2018-07-03T05:07:36.752Z,44.6
2018-07-03T05:08:17.218Z,44.6
2018-07-03T05:08:57.898Z,44.68
2018-07-03T05:09:38.241Z,44.68
2018-07-03T05:10:18.756Z,44.7
2018-07-03T05:10:59.280Z,44.7
2018-07-03T05:11:40.342Z,44.7
2018-07-03T05:12:20.920Z,45
2018-07-03T05:13:01.413Z,45.07
2018-07-03T05:13:41.839Z,45.26
2018-07-03T05:14:22.337Z,45.45
2018-07-03T05:15:02.840Z,45.36
2018-07-03T05:15:43.356Z,45.45
2018-07-03T05:16:23.845Z,44.97
2018-07-03T05:17:05.069Z,45.45
2018-07-03T05:17:45.547Z,46.03
2018-07-03T05:18:26.087Z,46.61
2018-07-03T05:19:08.114Z,45.75
2018-07-03T05:19:49.435Z,46.15
2018-07-03T05:20:29.930Z,45.28
2018-07-03T05:21:10.934Z,45.59
2018-07-03T05:21:51.412Z,46.75
2018-07-03T05:22:31.901Z,53.59
2018-07-03T05:23:12.451Z,56.96
2018-07-03T05:23:53.097Z,53.49
2018-07-03T05:24:33.735Z,48.37
2018-07-03T05:25:14.340Z,48.18
2018-07-03T05:25:54.787Z,48.57
2018-07-03T05:26:35.393Z,54.27
2018-07-03T05:27:15.840Z,48.88
2018-07-03T05:27:56.402Z,45.91
2018-07-03T05:28:36.936Z,49.7
2018-07-03T05:29:17.398Z,49.29
2018-07-03T05:29:58.848Z,52.77
2018-07-03T05:30:39.352Z,50.93
2018-07-03T05:31:19.852Z,47.91
2018-07-03T05:32:00.305Z,50.43
2018-07-03T05:32:40.855Z,47.81
2018-07-03T05:33:21.323Z,45.98
2018-07-03T05:34:01.810Z,47.81
2018-07-03T05:34:42.303Z,51.1
2018-07-03T05:35:22.817Z,47.31
2018-07-03T05:36:03.301Z,45.76
2018-07-03T05:36:43.863Z,47.5
2018-07-03T05:37:24.316Z,48.28
2018-07-03T05:38:05.457Z,54.65
2018-07-03T05:38:45.974Z,56.68
2018-07-03T05:39:26.413Z,56.2
2018-07-03T05:40:06.907Z,52.14
2018-07-03T05:40:47.492Z,52.53
2018-07-03T05:41:28.887Z,48.86
2018-07-03T05:42:09.458Z,52.23
2018-07-03T05:44:08.308Z,50.69
2018-07-03T05:44:49.599Z,48.18
2018-07-03T05:45:30.871Z,52.72
2018-07-03T05:46:11.389Z,52.23
2018-07-03T05:46:51.900Z,48.95
2018-07-03T05:47:33.211Z,48.57
2018-07-03T05:48:13.784Z,46.61
2018-07-03T05:48:54.281Z,46.51
2018-07-03T05:49:34.780Z,48.93
2018-07-03T05:50:15.273Z,47.29
2018-07-03T05:50:55.820Z,51.63
2018-07-03T05:51:36.360Z,52.04
2018-07-03T05:52:16.834Z,54.94
2018-07-03T05:52:57.346Z,49.22
2018-07-03T05:53:37.889Z,48.25
2018-07-03T05:54:18.562Z,49.73
2018-07-03T05:54:59.104Z,47.31
2018-07-03T05:55:39.625Z,46.34
2018-07-03T05:56:20.222Z,53.3
2018-07-03T05:57:00.641Z,48.97
2018-07-03T05:57:41.282Z,49.75
2018-07-03T05:58:22.454Z,54
2018-07-03T05:59:02.912Z,49.95
2018-07-03T05:59:43.419Z,51.29
2018-07-03T06:00:24.713Z,48.61
2018-07-03T06:01:05.215Z,46.61
2018-07-03T06:01:46.755Z,45.64
2018-07-03T06:02:27.210Z,45.08
2018-07-03T06:03:07.744Z,44.62
2018-07-03T06:03:48.269Z,42.78
2018-07-03T06:04:28.756Z,42.49
2018-07-03T06:05:09.209Z,42.61
2018-07-03T06:05:49.958Z,42.8
2018-07-03T06:06:30.443Z,50.84
2018-07-03T06:07:10.934Z,47.55
2018-07-03T06:07:51.445Z,44.18
2018-07-03T06:08:31.921Z,48.64
2018-07-03T06:09:12.450Z,45.83
2018-07-03T06:09:53.755Z,43.89
2018-07-03T06:10:34.840Z,44.1
2018-07-03T06:11:15.300Z,42.85
2018-07-03T06:11:56.832Z,44.2
2018-07-03T06:12:37.330Z,44.9
2018-07-03T06:13:17.821Z,42.29
2018-07-03T06:13:58.325Z,50.14
2018-07-03T06:14:38.962Z,45.48
2018-07-03T06:15:19.381Z,48.59
2018-07-03T06:16:00.736Z,47.33
2018-07-03T06:16:41.267Z,42.38
2018-07-03T06:17:21.815Z,40.73
2018-07-03T06:18:02.312Z,48.1
2018-07-03T06:18:42.859Z,47.45
2018-07-03T06:19:23.398Z,45.61
2018-07-03T06:20:03.906Z,44.83
2018-07-03T06:20:45.448Z,50.56
2018-07-03T06:21:26.750Z,48.32
2018-07-03T06:22:08.971Z,43.95
2018-07-03T06:22:49.455Z,48.13
2018-07-03T06:23:29.905Z,43.18
2018-07-03T06:24:10.446Z,40.29
2018-07-03T06:24:51.851Z,40.39
2018-07-03T06:25:32.318Z,44.85
2018-07-03T06:26:13.423Z,49.68
2018-07-03T06:26:53.890Z,44.65
2018-07-03T06:27:34.446Z,41.16
2018-07-03T06:28:15.020Z,40.09
2018-07-03T06:28:55.565Z,50.36
2018-07-03T06:29:36.047Z,52.01
2018-07-03T06:30:16.528Z,47.55
2018-07-03T06:30:57.679Z,45.04
2018-07-03T06:31:38.161Z,43.98
2018-07-03T06:32:18.698Z,46.6
2018-07-03T06:32:59.230Z,46.38
2018-07-03T06:33:39.748Z,51.91
2018-07-03T06:34:20.226Z,47.25
2018-07-03T06:35:00.691Z,43.66
2018-07-03T06:35:42.056Z,48.9
2018-07-03T06:36:23.258Z,44.92
2018-07-03T06:37:05.622Z,43.1
2018-07-03T06:37:46.172Z,47.28
2018-07-03T06:38:26.653Z,51.26
2018-07-03T06:39:08.052Z,45.04
2018-07-03T06:39:49.252Z,40.39
2018-07-03T06:40:29.735Z,39.61
2018-07-03T06:41:10.273Z,39.61
2018-07-03T06:41:50.781Z,49.41
2018-07-03T06:42:31.893Z,49.22
2018-07-03T06:43:12.433Z,47.86
2018-07-03T06:43:53.576Z,47.4
2018-07-03T06:44:34.961Z,48.75
2018-07-03T06:45:15.520Z,45.94
2018-07-03T06:45:55.942Z,48.08
2018-07-03T06:46:37.425Z,43.02
2018-07-03T06:47:17.941Z,44.97
2018-07-03T06:47:58.384Z,51.93
2018-07-03T06:48:38.916Z,53.49
2018-07-03T06:49:20.327Z,46.31
2018-07-03T06:50:01.356Z,41.26
2018-07-03T06:50:41.865Z,47.47
2018-07-03T06:51:22.357Z,46.79
2018-07-03T06:52:02.844Z,46.81
2018-07-03T06:52:43.464Z,45.94
2018-07-03T06:53:24.749Z,46.42
2018-07-03T06:54:05.030Z,46.91
2018-07-03T06:54:45.531Z,48.95
2018-07-03T06:55:26.116Z,46.98
2018-07-03T06:56:07.259Z,48.93
2018-07-03T06:56:48.561Z,50.48
2018-07-03T06:57:29.824Z,46.11
2018-07-03T06:58:10.361Z,43.3
2018-07-03T06:58:50.816Z,42.13
2018-07-03T06:59:31.347Z,42.43
2018-07-03T07:00:12.374Z,46.21
2018-07-03T07:00:53.565Z,40.39
2018-07-03T07:01:34.032Z,40.19
2018-07-03T07:02:15.260Z,41.67
2018-07-03T07:02:55.740Z,40.6
2018-07-03T07:03:36.319Z,40.11
2018-07-03T07:04:17.653Z,41.47
2018-07-03T07:04:58.154Z,41.49
2018-07-03T07:05:39.665Z,40.52
2018-07-03T07:06:20.748Z,40.03
2018-07-03T07:07:02.908Z,45.28
2018-07-03T07:07:43.412Z,42.18
2018-07-03T07:08:23.868Z,46.74
2018-07-03T07:09:05.287Z,44.7
2018-07-03T07:09:45.655Z,40.33
2018-07-03T07:10:27.173Z,39.45
2018-07-03T07:11:07.753Z,41.1
2018-07-03T07:11:48.248Z,41.01
2018-07-03T07:12:28.791Z,42.76
2018-07-03T07:13:10.165Z,50.99
2018-07-03T07:13:50.713Z,46.62
2018-07-03T07:14:31.215Z,47.78
2018-07-03T07:15:11.735Z,42.83
2018-07-03T07:15:52.246Z,41.2
2018-07-03T07:16:32.789Z,43.22
2018-07-03T07:17:13.215Z,43.32
2018-07-03T07:17:53.705Z,43.22
2018-07-03T07:18:34.261Z,48.37
2018-07-03T07:19:15.581Z,48.57
2018-07-03T07:19:56.039Z,47.42
2018-07-03T07:20:36.510Z,50.14
2018-07-03T07:21:17.192Z,48.68
2018-07-03T07:21:58.253Z,45.09
2018-07-03T07:22:40.243Z,44.12
2018-07-03T07:23:20.823Z,50.99
2018-07-03T07:24:01.239Z,45.84
2018-07-03T07:24:41.758Z,45.57
2018-07-03T07:25:22.235Z,48.78
2018-07-03T07:26:02.760Z,44.02
2018-07-03T07:26:43.276Z,50.34
2018-07-03T07:27:23.764Z,46.64
2018-07-03T07:28:04.291Z,43.73
2018-07-03T07:28:45.448Z,45.48
2018-07-03T07:29:25.958Z,47.42
2018-07-03T07:30:07.193Z,45.09
2018-07-03T07:30:47.701Z,43.34
2018-07-03T07:31:28.183Z,48.39
2018-07-03T07:32:08.701Z,48.88
2018-07-03T07:32:49.181Z,43.82
2018-07-03T07:33:29.696Z,45.4
2018-07-03T07:34:10.232Z,42.29
2018-07-03T07:34:51.272Z,45.48
2018-07-03T07:35:31.756Z,46.25
2018-07-03T07:36:12.264Z,48
2018-07-03T07:36:52.794Z,43.44
2018-07-03T07:37:33.396Z,41.32
2018-07-03T07:38:13.877Z,40.54
2018-07-03T07:38:54.370Z,41.13
2018-07-03T07:39:34.881Z,44.12
2018-07-03T07:40:15.426Z,47.71
2018-07-03T07:40:55.871Z,48.66
2018-07-03T07:41:36.351Z,46.91
2018-07-03T07:42:16.808Z,48.85
2018-07-03T07:42:57.336Z,49.92
2018-07-03T07:43:37.824Z,45.36
2018-07-03T07:44:18.315Z,45.18
2018-07-03T07:44:58.834Z,47.59
2018-07-03T07:45:39.380Z,43.82
2018-07-03T07:46:20.797Z,41.08
2018-07-03T07:47:01.307Z,40.6
2018-07-03T07:47:41.821Z,41.3
2018-07-03T07:48:22.281Z,40.33
2018-07-03T07:49:02.786Z,45.09
2018-07-03T07:49:43.281Z,50.6
2018-07-03T07:50:23.796Z,45.84
2018-07-03T07:51:04.374Z,41.98
2018-07-03T07:51:45.934Z,40.72
2018-07-03T07:52:26.378Z,40.72
2018-07-03T07:53:06.972Z,41.49
2018-07-03T07:53:48.005Z,40.81
2018-07-03T07:54:27.976Z,41.2
2018-07-03T07:55:09.297Z,47.42
2018-07-03T07:55:49.807Z,48.88
2018-07-03T07:56:30.905Z,46.37
2018-07-03T07:57:11.353Z,44.02
2018-07-03T07:57:51.840Z,45.01
2018-07-03T07:58:32.356Z,47.23
2018-07-03T07:59:12.886Z,45.09
2018-07-03T07:59:53.350Z,45.31
2018-07-03T08:00:34.601Z,46.37
2018-07-03T08:01:15.056Z,49.27
2018-07-03T08:01:56.105Z,45.21
2018-07-03T08:02:36.582Z,44.92
2018-07-03T08:03:17.102Z,47.64
2018-07-03T08:03:57.596Z,44.6
2018-07-03T08:04:38.685Z,43.07
2018-07-03T08:05:19.209Z,48.49
2018-07-03T08:05:59.741Z,43.73
2018-07-03T08:06:40.288Z,42.85
2018-07-03T08:07:20.734Z,43.55
2018-07-03T08:08:01.930Z,49.37
2018-07-03T08:08:45.093Z,45.89
2018-07-03T08:09:25.593Z,46.37
2018-07-03T08:10:06.610Z,47.15
2018-07-03T08:10:47.071Z,45.01
2018-07-03T08:11:28.463Z,48.61
2018-07-03T08:12:08.925Z,54.52
2018-07-03T08:12:49.482Z,56.16
2018-07-03T08:13:30.014Z,49.76
2018-07-03T08:14:10.523Z,50.92
2018-07-03T08:14:51.942Z,50.14
2018-07-03T08:15:33.214Z,49.27
2018-07-03T08:16:13.710Z,49.07
2018-07-03T08:16:55.107Z,48.88
2018-07-03T08:17:35.642Z,50.82
2018-07-03T08:18:16.079Z,53.06
2018-07-03T08:18:57.457Z,48.49
2018-07-03T08:19:38.637Z,45.79
2018-07-03T08:20:19.092Z,43.46
2018-07-03T08:21:00.372Z,44.7
2018-07-03T08:21:41.687Z,48.68
2018-07-03T08:22:22.191Z,48.3
2018-07-03T08:23:02.724Z,44.12
2018-07-03T08:23:43.250Z,44.21
2018-07-03T08:24:23.742Z,44.02
2018-07-03T08:25:04.894Z,46.06
2018-07-03T08:25:45.425Z,46.33
2018-07-03T08:26:25.963Z,45.45
2018-07-03T08:27:06.433Z,51.28
2018-07-03T08:27:46.939Z,48.57
2018-07-03T08:28:27.442Z,48.1
2018-07-03T08:29:07.950Z,50.31
2018-07-03T08:29:48.460Z,51.77
2018-07-03T08:30:29.515Z,46.72
2018-07-03T08:31:09.967Z,43.12
2018-07-03T08:31:52.391Z,43.82
2018-07-03T08:32:32.887Z,47.98
2018-07-03T08:33:13.402Z,50.31
2018-07-03T08:33:53.925Z,46.52
2018-07-03T08:34:34.469Z,48.57
2018-07-03T08:35:15.588Z,46.14
2018-07-03T08:35:56.154Z,46.91
2018-07-03T08:36:36.733Z,52.06
2018-07-03T08:37:17.252Z,48.95
2018-07-03T08:37:58.417Z,53.39
2018-07-03T08:38:38.883Z,47.38
2018-07-03T08:39:19.436Z,48.85
2018-07-03T08:40:00.085Z,49.63
2018-07-03T08:40:40.615Z,58.18
2018-07-03T08:41:21.125Z,51.48
2018-07-03T08:42:02.304Z,48.85
2018-07-03T08:42:42.818Z,44.48
2018-07-03T08:43:23.359Z,43.12
2018-07-03T08:44:03.816Z,48.57
2018-07-03T08:44:44.363Z,47.4
2018-07-03T08:45:24.824Z,46.04
2018-07-03T08:46:05.987Z,44.87
2018-07-03T08:46:46.502Z,42.25
2018-07-03T08:47:27.022Z,54
2018-07-03T08:48:07.535Z,55.36
2018-07-03T08:48:48.051Z,57.31
2018-07-03T08:49:28.555Z,56.46
2018-07-03T08:50:09.052Z,59.74